AirNav   Phillips 66 Aviation Fuel
 
 427 users online  

3R8 Scottsburg Airport
Scottsburg, Indiana, USA

GOING TO SCOTTSBURG?


FAA INFORMATION EFFECTIVE 03 JANUARY 2019

Location

FAA Identifier: 3R8
Lat/Long: 38-39-26.2110N / 085-47-24.8840W
38-39.436850N / 085-47.414733W
38.6572808 / -85.7902456
(estimated)
Elevation: 600 ft. / 183 m (estimated)
Variation: 02W (1985)
From city: 3 miles SW of SCOTTSBURG, IN
Time zone: UTC -5 (UTC -4 during Daylight Saving Time)
Zip code: 47170

Airport Operations

Airport use: Open to the public
Activation date: 10/1974
Control tower: no
ARTCC: INDIANAPOLIS CENTER
FSS: TERRE HAUTE FLIGHT SERVICE STATION
NOTAMs facility: HUF (NOTAM-D service available)
Attendance: IREG
Wind indicator: yes
Segmented circle: yes

Airport Communications

CTAF: 122.9
WX AWOS-3 at IMS (16 nm E): 119.175 (812-866-1798)
WX AWOS-3 at SER (17 nm N): 119.425 (812-522-4244)
WX AWOS-3 at JVY (18 nm S): 118.575 (812-246-1278)

Nearby radio navigation aids

VOR radial/distance  VOR name  Freq  Var
BQMr351/26.3BOWMAN VOR/DME112.2004W
IIUr342/34.7LOUISVILLE VORTAC114.8001E

 
NDB name  Hdg/Dist  Freq  Var  ID
CATCH349/11.333102WJV .--- ...-

Airport Services

Parking: hangars and tiedowns
Airframe service: NONE
Powerplant service: NONE

Runway Information

Runway 2/20

Dimensions: 2844 x 100 ft. / 867 x 30 m
Surface: turf, in good condition
Runway edge markings: 02/20 MARKED BY ORANGE TRAFFIC CONES.
RUNWAY 2  RUNWAY 20
Latitude: 38-39.253500N38-39.670500N
Longitude: 085-47.548000W085-47.322167W
Elevation: 605.0 ft.600.0 ft.
Traffic pattern: leftleft
Displaced threshold: 200 ft.380 ft.
Obstructions: 42 ft. trees, 150 ft. from runway, 140 ft. right of centerline, 3:1 slope to clear
APCH RATIO 8:1 AT DSPLCD THLD.
56 ft. trees, 646 ft. from runway, 213 ft. left and right of centerline, 11:1 slope to clear
APCH RATIO 18:1 AT DSPLCD THLD.

Airport Ownership and Management from official FAA records

Ownership: Privately-owned
Owner: TOM FITCH/LARRY BECKLEY
2527 LAKE ROAD S.
SCOTTSBURG, IN 47170
Phone 812-752-6631
Manager: LARRY BECKLEY
2527 LAKE ROAD S.
SCOTTSBURG, IN 47170
Phone 812-752-6631

Airport Operational Statistics

Aircraft based on the field: 20
Single engine airplanes: 2
Ultralights: 18
    
Aircraft operations: avg 67/month *
72% local general aviation
28% transient general aviation
* for 12-month period ending 31 December 2015

Additional Remarks

ARPT CLSD DEC 1 TO APR 1.
TREES ALL QUADRANTS.

Instrument Procedures

There are no published instrument procedures at 3R8.

Some nearby airports with instrument procedures:

KIMS - Madison Municipal Airport (16 nm E)
KSER - Freeman Municipal Airport (17 nm N)
KJVY - Clark Regional Airport (18 nm S)
KOVO - North Vernon Airport (25 nm N)
KLOU - Bowman Field Airport (26 nm S)
 
Loc | Ops | Rwys | IFR | FBO | Links
Com | Nav | Svcs | Stats | Notes
Area around 3R8 (Scottsburg Airport)
 
Road maps at: MapQuest Bing Google
 
Aerial photo
WARNING: Photo may not be current or correct
Aerial photo of 3R8 (Scottsburg Airport)
Do you have a better or more recent aerial photo of Scottsburg Airport that you would like to share? If so, please send us your photo.

 
Sectional chart

 
Airport distance calculator
Flying to Scottsburg Airport? Find the distance to fly.

From to 3R8

Sunrise and sunset
Times for 18-Jan-2019
 Local
(UTC-5)
 Zulu
(UTC)
Morning civil twilight07:3112:31
Sunrise08:0013:00
Sunset17:4822:48
Evening civil twilight18:1723:17

Current date and time
Zulu (UTC)  18-Jan-2019 11:53:46
Local (UTC-5)  18-Jan-2019 06:53:46
 
METAR
KIMS 
16nm E 
181136Z AUTO 00000KT 10SM SCT010 OVC015 02/02 A3013 RMK AO1
KJVY 
18nm S 
181135Z AUTO 34004KT 10SM OVC019 04/01 A3012 RMK AO2 T00350007
KLOU 
27nm S 
181053Z AUTO 31004KT 10SM OVC021 04/01 A3012 RMK AO2 SLP200 T00440011
KSDF 
29nm S 
181056Z 32005KT 10SM OVC021 04/01 A3011 RMK AO2 SLP199 T00440006
TAF
KSDF 
29nm S 
180652Z 1807/1912 29006KT P6SM SCT015 OVC025 FM180800 30006KT P6SM BKN015 FM181300 VRB03KT P6SM BKN018 FM181900 11005KT P6SM OVC021 FM190300 09007KT P6SM OVC014 FM190900 09008KT 5SM -RA OVC012
NOTAMs
Click for the latest NOTAMs
NOTAMs are issued by the DoD/FAA and will open in a separate window not controlled by AirNav.

 

 
 

Would you like to see your business listed on this page?

 If your business provides an interesting product or service to pilots, flight crews, aircraft, or users of the Scottsburg Airport, you should consider listing it here.  To start the listing process, click on the button below
 
Add a business
 

Other Pages about Scottsburg Airport

Update a link
 
Copyright © AirNav, LLC. All rights reserved. Privacy Policy  Contact